createdAt,value
2018-06-28T00:03:21.033Z,92.9
2018-06-28T00:08:21.220Z,94.5
2018-06-28T00:13:22.827Z,95.2
2018-06-28T00:18:22.623Z,94.8
2018-06-28T00:23:35.117Z,94.5
2018-06-28T00:28:35.068Z,93.9
2018-06-28T00:33:35.057Z,94.2
2018-06-28T00:38:35.084Z,94.6
2018-06-28T00:43:35.043Z,95.6
2018-06-28T00:48:34.991Z,94.1
2018-06-28T00:53:34.856Z,95.9
2018-06-28T00:58:35.864Z,95.3
2018-06-28T01:03:35.791Z,96.8
2018-06-28T01:08:47.658Z,97.2
2018-06-28T01:13:47.393Z,97.7
2018-06-28T01:18:48.510Z,96.7
2018-06-28T01:23:47.594Z,96.9
2018-06-28T01:28:47.397Z,98.1
2018-06-28T01:33:47.388Z,96.8
2018-06-28T01:38:47.406Z,96.6
2018-06-28T01:43:47.627Z,97.8
2018-06-28T01:48:47.408Z,98.4
2018-06-28T01:53:47.400Z,97.2
2018-06-28T01:58:47.401Z,97.3
2018-06-28T02:03:47.546Z,97.5
2018-06-28T02:08:47.422Z,96.8
2018-06-28T02:13:47.412Z,98.5
2018-06-28T02:18:59.467Z,98.1
2018-06-28T02:23:59.217Z,99.5
2018-06-28T02:28:59.219Z,98.7
2018-06-28T02:33:59.222Z,98.5
2018-06-28T02:38:59.361Z,99
2018-06-28T02:43:59.336Z,98.6
2018-06-28T02:48:59.438Z,99.5
2018-06-28T02:54:00.747Z,98.8
2018-06-28T02:59:00.641Z,98.3
2018-06-28T03:04:13.577Z,98.9
2018-06-28T03:09:13.503Z,99.3
2018-06-28T03:14:13.301Z,99.5
2018-06-28T03:19:13.462Z,98.8
2018-06-28T03:24:13.339Z,99.5
2018-06-28T03:29:13.532Z,98.2
2018-06-28T03:34:13.471Z,97.9
2018-06-28T03:39:13.359Z,98.9
2018-06-28T03:44:13.532Z,99.8
2018-06-28T03:49:25.843Z,98.7
2018-06-28T03:54:25.593Z,99
2018-06-28T03:59:25.581Z,98.3
2018-06-28T04:04:25.570Z,99.1
2018-06-28T04:09:25.592Z,99.8
2018-06-28T04:14:25.587Z,99.7
2018-06-28T04:19:25.625Z,99.2
2018-06-28T04:24:25.647Z,100
2018-06-28T04:29:25.632Z,100
2018-06-28T04:34:37.910Z,99.9
2018-06-28T04:39:37.631Z,99.7
2018-06-28T04:44:37.647Z,99.9
2018-06-28T04:49:37.843Z,100
2018-06-28T04:54:37.868Z,99.4
2018-06-28T04:59:37.764Z,100
2018-06-28T05:04:37.844Z,98.8
2018-06-28T05:09:38.477Z,100
2018-06-28T05:14:38.289Z,98.7
2018-06-28T05:19:53.448Z,99.2
2018-06-28T05:24:53.325Z,99.9
2018-06-28T05:29:53.341Z,99.5
2018-06-28T05:34:53.485Z,99.2
2018-06-28T05:39:53.186Z,99
2018-06-28T05:44:53.377Z,99.2
2018-06-28T05:49:53.418Z,99.9
2018-06-28T05:54:53.513Z,99.3
2018-06-28T05:59:53.678Z,100
2018-06-28T06:05:05.385Z,100
2018-06-28T06:10:05.321Z,100
2018-06-28T06:15:05.113Z,100
2018-06-28T06:20:05.254Z,100
2018-06-28T06:25:05.505Z,99.9
2018-06-28T06:30:05.550Z,99.9
2018-06-28T06:35:05.471Z,100
2018-06-28T06:40:06.473Z,100
2018-06-28T06:45:06.354Z,100
2018-06-28T06:50:19.139Z,100
2018-06-28T06:55:19.086Z,100
2018-06-28T07:00:19.062Z,100
2018-06-28T07:05:18.972Z,100
2018-06-28T07:10:19.483Z,100
2018-06-28T07:15:19.134Z,100
2018-06-28T07:20:18.965Z,100
2018-06-28T07:25:23.984Z,100
2018-06-28T07:30:23.896Z,100
2018-06-28T07:35:34.224Z,100
2018-06-28T07:40:33.914Z,100
2018-06-28T07:45:33.946Z,100
2018-06-28T07:50:34.044Z,100
2018-06-28T07:55:34.069Z,100
2018-06-28T08:00:33.948Z,100
2018-06-28T08:05:34.144Z,100
2018-06-28T08:10:33.945Z,100
2018-06-28T08:15:34.114Z,100
2018-06-28T08:20:45.626Z,100
2018-06-28T08:25:45.509Z,100
2018-06-28T08:30:45.352Z,100
2018-06-28T08:35:45.532Z,100
2018-06-28T08:40:45.507Z,100
2018-06-28T08:45:45.379Z,100
2018-06-28T08:50:45.476Z,100
2018-06-28T08:55:45.487Z,100
2018-06-28T09:00:45.584Z,100
2018-06-28T09:05:45.513Z,100
2018-06-28T09:10:45.544Z,100
2018-06-28T09:15:45.586Z,100
2018-06-28T09:20:45.408Z,100
2018-06-28T09:25:45.547Z,100
2018-06-28T09:30:57.951Z,100
2018-06-28T09:35:57.973Z,100
2018-06-28T09:40:57.684Z,100
2018-06-28T09:45:57.868Z,100
2018-06-28T09:50:57.676Z,100
2018-06-28T09:55:57.685Z,100
2018-06-28T10:00:57.679Z,100
2018-06-28T10:05:57.704Z,100
2018-06-28T10:10:57.698Z,100
2018-06-28T10:15:57.709Z,100
2018-06-28T10:20:57.911Z,100
2018-06-28T10:25:57.829Z,100
2018-06-28T10:30:59.623Z,100
2018-06-28T10:35:59.541Z,100
2018-06-28T10:41:11.903Z,100
2018-06-28T10:46:11.797Z,100
2018-06-28T10:51:11.613Z,100
2018-06-28T10:56:12.066Z,100
2018-06-28T11:01:11.987Z,100
2018-06-28T11:06:11.867Z,100
2018-06-28T11:11:11.975Z,100
2018-06-28T11:16:17.160Z,100
2018-06-28T11:21:17.067Z,100
2018-06-28T11:26:29.771Z,100
2018-06-28T11:31:29.502Z,100
2018-06-28T11:36:29.640Z,100
2018-06-28T11:41:29.511Z,100
2018-06-28T11:46:29.727Z,100
2018-06-28T11:51:29.640Z,100
2018-06-28T11:56:29.507Z,100
2018-06-28T12:01:30.315Z,100
2018-06-28T12:06:30.122Z,100
2018-06-28T12:11:42.449Z,100
2018-06-28T12:16:42.201Z,100
2018-06-28T12:21:42.323Z,100
2018-06-28T12:26:42.208Z,100
2018-06-28T12:31:42.317Z,100
2018-06-28T12:36:42.180Z,100
2018-06-28T12:41:42.188Z,100
2018-06-28T12:46:42.200Z,100
2018-06-28T12:51:42.351Z,100
2018-06-28T12:56:54.247Z,100
2018-06-28T13:01:54.196Z,100
2018-06-28T13:06:53.974Z,100
2018-06-28T13:11:53.958Z,100
2018-06-28T13:16:53.979Z,100
2018-06-28T13:21:54.010Z,100
2018-06-28T13:26:54.168Z,100
2018-06-28T13:31:54.541Z,100
2018-06-28T13:36:54.435Z,100
2018-06-28T13:42:07.567Z,100
2018-06-28T13:47:07.056Z,100
2018-06-28T13:52:07.113Z,100
2018-06-28T13:57:07.153Z,100
2018-06-28T14:02:07.080Z,100
2018-06-28T14:07:06.978Z,100
2018-06-28T14:12:06.959Z,100
2018-06-28T14:17:07.974Z,100
2018-06-28T14:22:07.821Z,100
2018-06-28T14:27:20.290Z,100
2018-06-28T14:32:20.304Z,100
2018-06-28T14:37:20.238Z,100
2018-06-28T14:42:20.001Z,100
2018-06-28T14:47:20.537Z,100
2018-06-28T14:52:20.237Z,100
2018-06-28T14:57:20.046Z,100
2018-06-28T15:02:21.768Z,100
2018-06-28T15:07:21.624Z,100
2018-06-28T15:12:36.066Z,100
2018-06-28T15:17:35.373Z,100
2018-06-28T15:22:35.594Z,100
2018-06-28T15:27:35.424Z,100
2018-06-28T15:32:35.560Z,100
2018-06-28T15:37:35.388Z,100
2018-06-28T15:42:35.573Z,100
2018-06-28T15:47:37.032Z,100
2018-06-28T15:52:36.909Z,100
2018-06-28T15:57:53.565Z,100
2018-06-28T16:02:52.965Z,100
2018-06-28T16:07:53.340Z,100
2018-06-28T16:12:53.330Z,100
2018-06-28T16:17:51.890Z,100
2018-06-28T16:22:53.341Z,100
2018-06-28T16:27:53.047Z,100
2018-06-28T16:32:53.468Z,100
2018-06-28T16:37:54.899Z,100
2018-06-28T16:47:59.314Z,100
2018-06-28T16:52:58.656Z,100
2018-06-28T16:57:57.553Z,100
2018-06-28T17:02:56.770Z,100
2018-06-28T17:07:56.772Z,100
2018-06-28T17:12:57.872Z,100
2018-06-28T17:17:57.801Z,100
2018-06-28T17:23:01.343Z,100
2018-06-28T17:28:01.056Z,100
2018-06-28T17:33:11.228Z,100
2018-06-28T17:43:10.900Z,100
2018-06-28T17:48:10.857Z,100
2018-06-28T17:53:10.905Z,100
2018-06-28T17:58:11.030Z,100
2018-06-28T18:03:11.095Z,100
2018-06-28T18:08:13.534Z,100
2018-06-28T18:13:13.330Z,100
2018-06-28T18:18:25.909Z,100
2018-06-28T18:23:28.641Z,100
2018-06-28T18:28:25.891Z,100
2018-06-28T18:33:25.964Z,100
2018-06-28T18:38:25.974Z,100
2018-06-28T18:43:25.769Z,100
2018-06-28T18:48:26.154Z,100
2018-06-28T18:53:27.111Z,100
2018-06-28T18:58:26.813Z,100
2018-06-28T19:03:38.947Z,100
2018-06-28T19:08:38.932Z,100
2018-06-28T19:13:38.642Z,100
2018-06-28T19:18:38.675Z,100
2018-06-28T19:23:38.664Z,100
2018-06-28T19:28:38.705Z,100
2018-06-28T19:33:38.738Z,100
2018-06-28T19:38:40.767Z,100
2018-06-28T19:43:40.501Z,100
2018-06-28T19:48:54.290Z,100
2018-06-28T19:53:54.070Z,100
2018-06-28T19:58:54.051Z,100
2018-06-28T20:03:54.034Z,100
2018-06-28T20:08:54.039Z,100
2018-06-28T20:13:54.017Z,100
2018-06-28T20:18:54.030Z,100
2018-06-28T20:23:53.989Z,100
2018-06-28T20:28:54.040Z,100
2018-06-28T20:34:05.239Z,100
2018-06-28T20:39:05.000Z,100
2018-06-28T20:44:04.964Z,100
2018-06-28T20:49:04.946Z,100
2018-06-28T20:54:04.966Z,100
2018-06-28T20:59:05.327Z,100
2018-06-28T21:04:04.964Z,100
2018-06-28T21:09:05.149Z,100
2018-06-28T21:14:05.257Z,100
2018-06-28T21:19:17.468Z,100
2018-06-28T21:24:17.197Z,100
2018-06-28T21:29:17.276Z,100
2018-06-28T21:34:17.426Z,100
2018-06-28T21:39:17.195Z,100
2018-06-28T21:44:17.193Z,100
2018-06-28T21:49:17.327Z,100
2018-06-28T21:54:17.394Z,100
2018-06-28T21:59:17.430Z,100
2018-06-28T22:04:29.616Z,100
2018-06-28T22:09:29.347Z,100
2018-06-28T22:14:29.566Z,100
2018-06-28T22:19:29.347Z,100
2018-06-28T22:24:29.362Z,100
2018-06-28T22:29:29.365Z,100
2018-06-28T22:34:29.368Z,100
2018-06-28T22:39:29.467Z,100
2018-06-28T22:44:29.682Z,100
2018-06-28T22:49:41.708Z,100
2018-06-28T22:54:41.423Z,100
2018-06-28T22:59:41.433Z,100
2018-06-28T23:04:41.777Z,100
2018-06-28T23:09:41.418Z,100
2018-06-28T23:14:41.470Z,100
2018-06-28T23:19:41.584Z,100
2018-06-28T23:24:43.398Z,100
2018-06-28T23:29:43.246Z,100
2018-06-28T23:34:57.256Z,100
2018-06-28T23:39:56.972Z,100
2018-06-28T23:44:57.130Z,100
2018-06-28T23:49:57.012Z,100
2018-06-28T23:54:57.256Z,100
2018-06-28T23:59:56.978Z,100
